sensor_id;sensor_type;location;lat;lon;timestamp;P1;durP1;ratioP1;P2;durP2;ratioP2
69754;SDS011;57023;52.218;5.158;2023-05-21T00:00:08;6.15;;;3.80;;
69754;SDS011;57023;52.218;5.158;2023-05-21T00:02:36;6.13;;;3.92;;
69754;SDS011;57023;52.218;5.158;2023-05-21T00:05:02;5.93;;;3.78;;
69754;SDS011;57023;52.218;5.158;2023-05-21T00:07:27;5.53;;;4.13;;
69754;SDS011;57023;52.218;5.158;2023-05-21T00:09:53;6.13;;;4.18;;
69754;SDS011;57023;52.218;5.158;2023-05-21T00:12:18;7.00;;;4.10;;
69754;SDS011;57023;52.218;5.158;2023-05-21T00:14:43;6.57;;;4.30;;
69754;SDS011;57023;52.218;5.158;2023-05-21T00:17:09;5.07;;;3.60;;
69754;SDS011;57023;52.218;5.158;2023-05-21T00:19:34;5.88;;;4.20;;
69754;SDS011;57023;52.218;5.158;2023-05-21T00:21:59;9.35;;;4.47;;
69754;SDS011;57023;52.218;5.158;2023-05-21T00:24:28;7.25;;;4.00;;
69754;SDS011;57023;52.218;5.158;2023-05-21T00:26:54;6.60;;;4.10;;
69754;SDS011;57023;52.218;5.158;2023-05-21T00:29:20;6.75;;;4.50;;
69754;SDS011;57023;52.218;5.158;2023-05-21T00:31:48;6.45;;;4.30;;
69754;SDS011;57023;52.218;5.158;2023-05-21T00:34:15;7.43;;;4.40;;
69754;SDS011;57023;52.218;5.158;2023-05-21T00:36:40;9.38;;;4.30;;
69754;SDS011;57023;52.218;5.158;2023-05-21T00:39:09;6.95;;;4.40;;
69754;SDS011;57023;52.218;5.158;2023-05-21T00:41:35;6.50;;;4.03;;
69754;SDS011;57023;52.218;5.158;2023-05-21T00:44:02;6.32;;;4.38;;
69754;SDS011;57023;52.218;5.158;2023-05-21T00:46:27;6.75;;;4.70;;
69754;SDS011;57023;52.218;5.158;2023-05-21T00:48:52;7.45;;;4.57;;
69754;SDS011;57023;52.218;5.158;2023-05-21T00:51:18;6.93;;;4.63;;
69754;SDS011;57023;52.218;5.158;2023-05-21T00:53:48;9.60;;;4.88;;
69754;SDS011;57023;52.218;5.158;2023-05-21T00:56:16;8.27;;;4.60;;
69754;SDS011;57023;52.218;5.158;2023-05-21T00:58:43;6.97;;;4.40;;
69754;SDS011;57023;52.218;5.158;2023-05-21T01:01:08;7.00;;;4.90;;
69754;SDS011;57023;52.218;5.158;2023-05-21T01:03:37;6.40;;;4.78;;
69754;SDS011;57023;52.218;5.158;2023-05-21T01:06:03;8.77;;;4.70;;
69754;SDS011;57023;52.218;5.158;2023-05-21T01:08:29;7.72;;;4.55;;
69754;SDS011;57023;52.218;5.158;2023-05-21T01:10:54;6.90;;;4.78;;
69754;SDS011;57023;52.218;5.158;2023-05-21T01:13:23;9.38;;;5.30;;
69754;SDS011;57023;52.218;5.158;2023-05-21T01:15:50;8.03;;;5.20;;
69754;SDS011;57023;52.218;5.158;2023-05-21T01:18:16;6.63;;;4.63;;
69754;SDS011;57023;52.218;5.158;2023-05-21T01:20:43;9.85;;;4.80;;
69754;SDS011;57023;52.218;5.158;2023-05-21T01:23:12;6.82;;;4.43;;
69754;SDS011;57023;52.218;5.158;2023-05-21T01:25:40;7.47;;;4.97;;
69754;SDS011;57023;52.218;5.158;2023-05-21T01:28:06;7.15;;;5.35;;
69754;SDS011;57023;52.218;5.158;2023-05-21T01:30:34;8.60;;;5.10;;
69754;SDS011;57023;52.218;5.158;2023-05-21T01:33:04;6.93;;;4.97;;
69754;SDS011;57023;52.218;5.158;2023-05-21T01:35:38;7.05;;;4.90;;
69754;SDS011;57023;52.218;5.158;2023-05-21T01:38:11;7.55;;;4.90;;
69754;SDS011;57023;52.218;5.158;2023-05-21T01:40:52;7.03;;;4.90;;
69754;SDS011;57023;52.218;5.158;2023-05-21T01:43:19;7.35;;;5.20;;
69754;SDS011;57023;52.218;5.158;2023-05-21T01:45:46;6.75;;;5.05;;
69754;SDS011;57023;52.218;5.158;2023-05-21T01:48:12;8.25;;;5.00;;
69754;SDS011;57023;52.218;5.158;2023-05-21T01:50:39;7.33;;;5.10;;
69754;SDS011;57023;52.218;5.158;2023-05-21T01:53:05;11.35;;;5.35;;
69754;SDS011;57023;52.218;5.158;2023-05-21T01:55:30;8.68;;;5.05;;
69754;SDS011;57023;52.218;5.158;2023-05-21T01:57:56;8.77;;;5.18;;
69754;SDS011;57023;52.218;5.158;2023-05-21T02:00:25;8.63;;;5.20;;
69754;SDS011;57023;52.218;5.158;2023-05-21T02:02:53;8.00;;;5.43;;
69754;SDS011;57023;52.218;5.158;2023-05-21T02:05:20;6.68;;;5.00;;
69754;SDS011;57023;52.218;5.158;2023-05-21T02:07:45;7.25;;;5.10;;
69754;SDS011;57023;52.218;5.158;2023-05-21T02:10:11;7.60;;;5.45;;
69754;SDS011;57023;52.218;5.158;2023-05-21T02:12:40;7.68;;;5.07;;
69754;SDS011;57023;52.218;5.158;2023-05-21T02:15:08;7.55;;;5.20;;
69754;SDS011;57023;52.218;5.158;2023-05-21T02:17:34;8.07;;;5.38;;
69754;SDS011;57023;52.218;5.158;2023-05-21T02:20:00;8.07;;;5.07;;
69754;SDS011;57023;52.218;5.158;2023-05-21T02:22:35;8.13;;;5.30;;
69754;SDS011;57023;52.218;5.158;2023-05-21T02:25:04;7.25;;;5.30;;
69754;SDS011;57023;52.218;5.158;2023-05-21T02:27:31;7.38;;;5.22;;
69754;SDS011;57023;52.218;5.158;2023-05-21T02:29:59;9.93;;;5.40;;
69754;SDS011;57023;52.218;5.158;2023-05-21T02:32:24;8.23;;;5.30;;
69754;SDS011;57023;52.218;5.158;2023-05-21T02:34:50;8.23;;;5.47;;
69754;SDS011;57023;52.218;5.158;2023-05-21T02:37:15;7.60;;;5.47;;
69754;SDS011;57023;52.218;5.158;2023-05-21T02:39:41;8.00;;;5.20;;
69754;SDS011;57023;52.218;5.158;2023-05-21T02:42:06;7.40;;;5.20;;
69754;SDS011;57023;52.218;5.158;2023-05-21T02:44:32;7.47;;;5.28;;
69754;SDS011;57023;52.218;5.158;2023-05-21T02:46:57;7.07;;;4.97;;
69754;SDS011;57023;52.218;5.158;2023-05-21T02:49:22;7.70;;;5.10;;
69754;SDS011;57023;52.218;5.158;2023-05-21T02:51:48;8.82;;;5.30;;
69754;SDS011;57023;52.218;5.158;2023-05-21T02:54:13;8.38;;;5.60;;
69754;SDS011;57023;52.218;5.158;2023-05-21T02:56:39;7.25;;;5.15;;
69754;SDS011;57023;52.218;5.158;2023-05-21T02:59:04;7.07;;;5.07;;
69754;SDS011;57023;52.218;5.158;2023-05-21T03:01:30;8.00;;;5.20;;
69754;SDS011;57023;52.218;5.158;2023-05-21T03:03:55;7.10;;;5.07;;
69754;SDS011;57023;52.218;5.158;2023-05-21T03:06:20;9.45;;;5.28;;
69754;SDS011;57023;52.218;5.158;2023-05-21T03:08:46;7.18;;;5.00;;
69754;SDS011;57023;52.218;5.158;2023-05-21T03:11:14;7.80;;;5.20;;
69754;SDS011;57023;52.218;5.158;2023-05-21T03:13:40;7.72;;;5.32;;
69754;SDS011;57023;52.218;5.158;2023-05-21T03:16:06;6.97;;;4.90;;
69754;SDS011;57023;52.218;5.158;2023-05-21T03:18:31;7.10;;;4.78;;
69754;SDS011;57023;52.218;5.158;2023-05-21T03:20:57;7.15;;;5.22;;
69754;SDS011;57023;52.218;5.158;2023-05-21T03:23:22;6.95;;;4.88;;
69754;SDS011;57023;52.218;5.158;2023-05-21T03:25:48;7.55;;;4.90;;
69754;SDS011;57023;52.218;5.158;2023-05-21T03:28:14;7.15;;;5.10;;
69754;SDS011;57023;52.218;5.158;2023-05-21T03:30:41;9.40;;;5.57;;
69754;SDS011;57023;52.218;5.158;2023-05-21T03:33:10;7.70;;;5.00;;
69754;SDS011;57023;52.218;5.158;2023-05-21T03:35:35;6.88;;;5.38;;
69754;SDS011;57023;52.218;5.158;2023-05-21T03:38:00;8.13;;;5.60;;
69754;SDS011;57023;52.218;5.158;2023-05-21T03:40:26;9.10;;;5.43;;
69754;SDS011;57023;52.218;5.158;2023-05-21T03:42:51;9.50;;;5.80;;
69754;SDS011;57023;52.218;5.158;2023-05-21T03:45:16;8.65;;;5.57;;
69754;SDS011;57023;52.218;5.158;2023-05-21T03:47:41;8.15;;;5.30;;
69754;SDS011;57023;52.218;5.158;2023-05-21T03:50:07;7.13;;;5.18;;
69754;SDS011;57023;52.218;5.158;2023-05-21T03:52:33;7.68;;;5.05;;
69754;SDS011;57023;52.218;5.158;2023-05-21T03:54:58;6.45;;;4.97;;
69754;SDS011;57023;52.218;5.158;2023-05-21T03:57:23;7.07;;;5.15;;
69754;SDS011;57023;52.218;5.158;2023-05-21T03:59:49;7.57;;;5.13;;
69754;SDS011;57023;52.218;5.158;2023-05-21T04:02:14;8.60;;;4.72;;
69754;SDS011;57023;52.218;5.158;2023-05-21T04:04:40;9.40;;;5.38;;
69754;SDS011;57023;52.218;5.158;2023-05-21T04:07:05;7.40;;;5.30;;
69754;SDS011;57023;52.218;5.158;2023-05-21T04:09:38;9.18;;;5.13;;
69754;SDS011;57023;52.218;5.158;2023-05-21T04:12:03;7.72;;;5.10;;
69754;SDS011;57023;52.218;5.158;2023-05-21T04:14:31;7.25;;;5.00;;
69754;SDS011;57023;52.218;5.158;2023-05-21T04:16:57;8.10;;;4.80;;
69754;SDS011;57023;52.218;5.158;2023-05-21T04:19:23;9.73;;;5.10;;
69754;SDS011;57023;52.218;5.158;2023-05-21T04:21:48;9.15;;;5.03;;
69754;SDS011;57023;52.218;5.158;2023-05-21T04:24:13;7.22;;;5.00;;
69754;SDS011;57023;52.218;5.158;2023-05-21T04:26:39;6.82;;;5.03;;
69754;SDS011;57023;52.218;5.158;2023-05-21T04:29:06;8.40;;;5.20;;
69754;SDS011;57023;52.218;5.158;2023-05-21T04:31:32;7.47;;;4.78;;
69754;SDS011;57023;52.218;5.158;2023-05-21T04:33:57;9.27;;;5.20;;
69754;SDS011;57023;52.218;5.158;2023-05-21T04:36:23;7.63;;;5.05;;
69754;SDS011;57023;52.218;5.158;2023-05-21T04:38:51;9.70;;;5.00;;
69754;SDS011;57023;52.218;5.158;2023-05-21T04:41:17;6.90;;;5.07;;
69754;SDS011;57023;52.218;5.158;2023-05-21T04:43:43;8.18;;;5.22;;
69754;SDS011;57023;52.218;5.158;2023-05-21T04:46:08;8.05;;;5.07;;
69754;SDS011;57023;52.218;5.158;2023-05-21T04:48:33;8.63;;;5.10;;
69754;SDS011;57023;52.218;5.158;2023-05-21T04:50:59;9.18;;;5.50;;
69754;SDS011;57023;52.218;5.158;2023-05-21T04:53:24;8.32;;;5.55;;
69754;SDS011;57023;52.218;5.158;2023-05-21T04:55:50;8.98;;;5.72;;
69754;SDS011;57023;52.218;5.158;2023-05-21T04:58:15;8.45;;;5.38;;
69754;SDS011;57023;52.218;5.158;2023-05-21T05:00:42;8.85;;;5.65;;
69754;SDS011;57023;52.218;5.158;2023-05-21T05:03:09;8.45;;;5.50;;
69754;SDS011;57023;52.218;5.158;2023-05-21T05:05:35;8.35;;;5.75;;
69754;SDS011;57023;52.218;5.158;2023-05-21T05:08:03;8.27;;;5.65;;
69754;SDS011;57023;52.218;5.158;2023-05-21T05:10:29;8.05;;;5.47;;
69754;SDS011;57023;52.218;5.158;2023-05-21T05:12:54;7.63;;;5.75;;
69754;SDS011;57023;52.218;5.158;2023-05-21T05:15:19;9.23;;;6.15;;
69754;SDS011;57023;52.218;5.158;2023-05-21T05:17:45;10.48;;;6.07;;
69754;SDS011;57023;52.218;5.158;2023-05-21T05:20:14;9.25;;;5.93;;
69754;SDS011;57023;52.218;5.158;2023-05-21T05:22:42;9.10;;;5.82;;
69754;SDS011;57023;52.218;5.158;2023-05-21T05:25:07;9.32;;;6.45;;
69754;SDS011;57023;52.218;5.158;2023-05-21T05:27:33;9.35;;;6.13;;
69754;SDS011;57023;52.218;5.158;2023-05-21T05:29:58;8.27;;;5.63;;
69754;SDS011;57023;52.218;5.158;2023-05-21T05:32:23;8.85;;;6.25;;
69754;SDS011;57023;52.218;5.158;2023-05-21T05:34:49;9.45;;;6.38;;
69754;SDS011;57023;52.218;5.158;2023-05-21T05:37:14;10.98;;;6.20;;
69754;SDS011;57023;52.218;5.158;2023-05-21T05:39:39;9.93;;;6.40;;
69754;SDS011;57023;52.218;5.158;2023-05-21T05:42:05;9.50;;;6.30;;
69754;SDS011;57023;52.218;5.158;2023-05-21T05:44:30;9.30;;;6.13;;
69754;SDS011;57023;52.218;5.158;2023-05-21T05:46:55;8.85;;;6.50;;
69754;SDS011;57023;52.218;5.158;2023-05-21T05:49:21;10.32;;;5.95;;
69754;SDS011;57023;52.218;5.158;2023-05-21T05:51:46;7.78;;;6.05;;
69754;SDS011;57023;52.218;5.158;2023-05-21T05:54:11;9.32;;;6.40;;
69754;SDS011;57023;52.218;5.158;2023-05-21T05:56:37;9.52;;;6.18;;
69754;SDS011;57023;52.218;5.158;2023-05-21T05:59:02;10.18;;;6.40;;
69754;SDS011;57023;52.218;5.158;2023-05-21T06:01:27;9.68;;;6.20;;
69754;SDS011;57023;52.218;5.158;2023-05-21T06:03:52;7.95;;;6.30;;
69754;SDS011;57023;52.218;5.158;2023-05-21T06:06:18;9.00;;;6.65;;
69754;SDS011;57023;52.218;5.158;2023-05-21T06:08:43;9.77;;;6.18;;
69754;SDS011;57023;52.218;5.158;2023-05-21T06:11:10;9.70;;;6.35;;
69754;SDS011;57023;52.218;5.158;2023-05-21T06:13:35;8.63;;;6.60;;
69754;SDS011;57023;52.218;5.158;2023-05-21T06:16:01;10.18;;;6.70;;
69754;SDS011;57023;52.218;5.158;2023-05-21T06:18:27;10.07;;;6.30;;
69754;SDS011;57023;52.218;5.158;2023-05-21T06:20:53;10.20;;;6.88;;
69754;SDS011;57023;52.218;5.158;2023-05-21T06:23:18;9.43;;;6.43;;
69754;SDS011;57023;52.218;5.158;2023-05-21T06:25:43;10.52;;;6.78;;
69754;SDS011;57023;52.218;5.158;2023-05-21T06:28:09;11.18;;;6.78;;
69754;SDS011;57023;52.218;5.158;2023-05-21T06:30:34;11.75;;;6.70;;
69754;SDS011;57023;52.218;5.158;2023-05-21T06:32:59;9.60;;;6.55;;
69754;SDS011;57023;52.218;5.158;2023-05-21T06:35:28;9.38;;;6.47;;
69754;SDS011;57023;52.218;5.158;2023-05-21T06:37:53;9.73;;;6.72;;
69754;SDS011;57023;52.218;5.158;2023-05-21T06:40:18;11.95;;;7.22;;
69754;SDS011;57023;52.218;5.158;2023-05-21T06:42:44;9.57;;;6.90;;
69754;SDS011;57023;52.218;5.158;2023-05-21T06:45:10;8.85;;;6.72;;
69754;SDS011;57023;52.218;5.158;2023-05-21T06:47:35;9.52;;;6.80;;
69754;SDS011;57023;52.218;5.158;2023-05-21T06:50:03;9.07;;;7.13;;
69754;SDS011;57023;52.218;5.158;2023-05-21T06:52:28;9.57;;;6.78;;
69754;SDS011;57023;52.218;5.158;2023-05-21T06:54:58;10.85;;;6.35;;
69754;SDS011;57023;52.218;5.158;2023-05-21T06:57:30;9.68;;;6.80;;
69754;SDS011;57023;52.218;5.158;2023-05-21T07:00:03;10.60;;;7.05;;
69754;SDS011;57023;52.218;5.158;2023-05-21T07:02:30;9.30;;;6.97;;
69754;SDS011;57023;52.218;5.158;2023-05-21T07:04:55;10.50;;;6.85;;
69754;SDS011;57023;52.218;5.158;2023-05-21T07:07:20;9.98;;;6.80;;
69754;SDS011;57023;52.218;5.158;2023-05-21T07:09:47;10.85;;;7.00;;
69754;SDS011;57023;52.218;5.158;2023-05-21T07:12:12;9.10;;;6.30;;
69754;SDS011;57023;52.218;5.158;2023-05-21T07:14:37;8.88;;;6.82;;
69754;SDS011;57023;52.218;5.158;2023-05-21T07:17:06;8.48;;;6.50;;
69754;SDS011;57023;52.218;5.158;2023-05-21T07:19:31;10.15;;;6.53;;
69754;SDS011;57023;52.218;5.158;2023-05-21T07:21:56;9.48;;;6.53;;
69754;SDS011;57023;52.218;5.158;2023-05-21T07:24:22;9.50;;;6.30;;
69754;SDS011;57023;52.218;5.158;2023-05-21T07:26:47;10.82;;;6.72;;
69754;SDS011;57023;52.218;5.158;2023-05-21T07:29:12;9.68;;;6.40;;
69754;SDS011;57023;52.218;5.158;2023-05-21T07:31:38;10.48;;;7.22;;
69754;SDS011;57023;52.218;5.158;2023-05-21T07:34:03;10.38;;;7.03;;
69754;SDS011;57023;52.218;5.158;2023-05-21T07:36:28;10.45;;;6.90;;
69754;SDS011;57023;52.218;5.158;2023-05-21T07:38:55;8.87;;;6.60;;
69754;SDS011;57023;52.218;5.158;2023-05-21T07:41:20;8.82;;;6.82;;
69754;SDS011;57023;52.218;5.158;2023-05-21T07:43:46;9.65;;;6.75;;
69754;SDS011;57023;52.218;5.158;2023-05-21T07:46:11;9.38;;;6.85;;
69754;SDS011;57023;52.218;5.158;2023-05-21T07:48:37;11.63;;;6.57;;
69754;SDS011;57023;52.218;5.158;2023-05-21T07:51:02;13.55;;;6.95;;
69754;SDS011;57023;52.218;5.158;2023-05-21T07:53:28;9.25;;;6.78;;
69754;SDS011;57023;52.218;5.158;2023-05-21T07:55:56;9.38;;;6.72;;
69754;SDS011;57023;52.218;5.158;2023-05-21T07:58:21;9.77;;;6.38;;
69754;SDS011;57023;52.218;5.158;2023-05-21T08:00:47;8.75;;;6.80;;
69754;SDS011;57023;52.218;5.158;2023-05-21T08:03:16;8.07;;;6.60;;
69754;SDS011;57023;52.218;5.158;2023-05-21T08:05:44;10.43;;;7.15;;
69754;SDS011;57023;52.218;5.158;2023-05-21T08:08:16;9.02;;;6.80;;
69754;SDS011;57023;52.218;5.158;2023-05-21T08:10:42;8.57;;;6.43;;
69754;SDS011;57023;52.218;5.158;2023-05-21T08:13:08;9.25;;;6.40;;
69754;SDS011;57023;52.218;5.158;2023-05-21T08:15:33;9.15;;;7.15;;
69754;SDS011;57023;52.218;5.158;2023-05-21T08:17:59;9.95;;;6.72;;
69754;SDS011;57023;52.218;5.158;2023-05-21T08:20:24;9.27;;;6.63;;
69754;SDS011;57023;52.218;5.158;2023-05-21T08:22:50;8.88;;;6.93;;
69754;SDS011;57023;52.218;5.158;2023-05-21T08:25:17;8.63;;;6.68;;
69754;SDS011;57023;52.218;5.158;2023-05-21T08:27:42;8.73;;;6.35;;
69754;SDS011;57023;52.218;5.158;2023-05-21T08:30:07;7.70;;;5.90;;
69754;SDS011;57023;52.218;5.158;2023-05-21T08:32:37;9.18;;;6.53;;
69754;SDS011;57023;52.218;5.158;2023-05-21T08:35:05;8.60;;;6.50;;
69754;SDS011;57023;52.218;5.158;2023-05-21T08:37:32;10.07;;;6.88;;
69754;SDS011;57023;52.218;5.158;2023-05-21T08:39:57;9.98;;;6.68;;
69754;SDS011;57023;52.218;5.158;2023-05-21T08:44:59;10.50;;;6.22;;
69754;SDS011;57023;52.218;5.158;2023-05-21T08:47:25;8.48;;;6.45;;
69754;SDS011;57023;52.218;5.158;2023-05-21T08:49:51;9.25;;;7.38;;
69754;SDS011;57023;52.218;5.158;2023-05-21T08:52:17;8.25;;;6.55;;
69754;SDS011;57023;52.218;5.158;2023-05-21T08:54:43;10.45;;;6.95;;
69754;SDS011;57023;52.218;5.158;2023-05-21T08:57:09;9.50;;;6.72;;
69754;SDS011;57023;52.218;5.158;2023-05-21T08:59:35;10.63;;;6.70;;
69754;SDS011;57023;52.218;5.158;2023-05-21T09:02:02;8.98;;;6.72;;
69754;SDS011;57023;52.218;5.158;2023-05-21T09:04:28;9.43;;;6.50;;
69754;SDS011;57023;52.218;5.158;2023-05-21T09:06:54;8.38;;;6.57;;
69754;SDS011;57023;52.218;5.158;2023-05-21T09:11:56;9.82;;;6.30;;
69754;SDS011;57023;52.218;5.158;2023-05-21T09:14:26;9.00;;;6.22;;
69754;SDS011;57023;52.218;5.158;2023-05-21T09:16:52;9.18;;;6.65;;
69754;SDS011;57023;52.218;5.158;2023-05-21T09:19:20;10.35;;;6.45;;
69754;SDS011;57023;52.218;5.158;2023-05-21T09:21:46;10.60;;;6.75;;
69754;SDS011;57023;52.218;5.158;2023-05-21T09:24:11;9.25;;;6.78;;
69754;SDS011;57023;52.218;5.158;2023-05-21T09:26:41;9.52;;;6.32;;
69754;SDS011;57023;52.218;5.158;2023-05-21T09:29:07;10.38;;;6.78;;
69754;SDS011;57023;52.218;5.158;2023-05-21T09:31:32;10.55;;;6.47;;
69754;SDS011;57023;52.218;5.158;2023-05-21T09:33:57;7.78;;;5.78;;
69754;SDS011;57023;52.218;5.158;2023-05-21T09:36:23;9.95;;;6.63;;
69754;SDS011;57023;52.218;5.158;2023-05-21T09:38:49;10.57;;;7.18;;
69754;SDS011;57023;52.218;5.158;2023-05-21T09:41:15;9.45;;;6.53;;
69754;SDS011;57023;52.218;5.158;2023-05-21T09:43:41;9.53;;;5.73;;
69754;SDS011;57023;52.218;5.158;2023-05-21T09:46:08;7.82;;;5.85;;
69754;SDS011;57023;52.218;5.158;2023-05-21T09:48:34;9.48;;;6.40;;
69754;SDS011;57023;52.218;5.158;2023-05-21T09:53:55;9.30;;;6.03;;
69754;SDS011;57023;52.218;5.158;2023-05-21T09:56:24;11.38;;;6.25;;
69754;SDS011;57023;52.218;5.158;2023-05-21T09:59:01;7.82;;;6.00;;
69754;SDS011;57023;52.218;5.158;2023-05-21T10:01:29;9.43;;;6.28;;
69754;SDS011;57023;52.218;5.158;2023-05-21T10:03:56;9.82;;;6.18;;
69754;SDS011;57023;52.218;5.158;2023-05-21T10:06:26;9.07;;;6.20;;
69754;SDS011;57023;52.218;5.158;2023-05-21T10:08:53;9.23;;;6.00;;
69754;SDS011;57023;52.218;5.158;2023-05-21T10:11:21;9.75;;;6.20;;
69754;SDS011;57023;52.218;5.158;2023-05-21T10:13:52;8.88;;;6.07;;
69754;SDS011;57023;52.218;5.158;2023-05-21T10:16:20;9.10;;;6.22;;
69754;SDS011;57023;52.218;5.158;2023-05-21T10:18:45;8.90;;;6.67;;
69754;SDS011;57023;52.218;5.158;2023-05-21T10:21:11;9.70;;;6.70;;
69754;SDS011;57023;52.218;5.158;2023-05-21T10:23:37;8.87;;;5.90;;
69754;SDS011;57023;52.218;5.158;2023-05-21T10:26:02;8.20;;;5.93;;
69754;SDS011;57023;52.218;5.158;2023-05-21T10:28:31;8.15;;;6.18;;
69754;SDS011;57023;52.218;5.158;2023-05-21T10:30:57;10.77;;;6.15;;
69754;SDS011;57023;52.218;5.158;2023-05-21T10:33:22;10.80;;;6.03;;
69754;SDS011;57023;52.218;5.158;2023-05-21T10:35:50;10.27;;;6.70;;
69754;SDS011;57023;52.218;5.158;2023-05-21T10:38:17;8.43;;;5.90;;
69754;SDS011;57023;52.218;5.158;2023-05-21T10:40:45;9.15;;;6.00;;
69754;SDS011;57023;52.218;5.158;2023-05-21T10:43:28;10.73;;;5.97;;
69754;SDS011;57023;52.218;5.158;2023-05-21T10:46:41;7.82;;;5.65;;
69754;SDS011;57023;52.218;5.158;2023-05-21T10:52:14;10.27;;;6.60;;
69754;SDS011;57023;52.218;5.158;2023-05-21T10:55:00;10.00;;;6.40;;
69754;SDS011;57023;52.218;5.158;2023-05-21T11:00:19;9.13;;;6.80;;
69754;SDS011;57023;52.218;5.158;2023-05-21T11:02:45;9.97;;;6.03;;
69754;SDS011;57023;52.218;5.158;2023-05-21T11:05:12;8.13;;;5.70;;
69754;SDS011;57023;52.218;5.158;2023-05-21T11:07:55;8.73;;;6.10;;
69754;SDS011;57023;52.218;5.158;2023-05-21T11:13:10;8.57;;;5.82;;
69754;SDS011;57023;52.218;5.158;2023-05-21T11:21:13;10.27;;;6.55;;
69754;SDS011;57023;52.218;5.158;2023-05-21T11:23:51;7.07;;;5.50;;
69754;SDS011;57023;52.218;5.158;2023-05-21T11:26:28;8.27;;;6.15;;
69754;SDS011;57023;52.218;5.158;2023-05-21T11:31:30;8.55;;;5.88;;
69754;SDS011;57023;52.218;5.158;2023-05-21T11:34:14;8.10;;;5.82;;
69754;SDS011;57023;52.218;5.158;2023-05-21T11:37:21;8.55;;;5.90;;
69754;SDS011;57023;52.218;5.158;2023-05-21T11:39:54;9.20;;;6.07;;
69754;SDS011;57023;52.218;5.158;2023-05-21T11:42:28;8.27;;;5.85;;
69754;SDS011;57023;52.218;5.158;2023-05-21T11:44:58;10.55;;;5.90;;
69754;SDS011;57023;52.218;5.158;2023-05-21T11:47:24;9.55;;;6.60;;
69754;SDS011;57023;52.218;5.158;2023-05-21T11:49:53;8.07;;;6.22;;
69754;SDS011;57023;52.218;5.158;2023-05-21T11:52:18;8.95;;;6.40;;
69754;SDS011;57023;52.218;5.158;2023-05-21T11:54:45;7.07;;;5.67;;
69754;SDS011;57023;52.218;5.158;2023-05-21T11:57:17;8.63;;;5.82;;
69754;SDS011;57023;52.218;5.158;2023-05-21T11:59:46;9.65;;;6.25;;
69754;SDS011;57023;52.218;5.158;2023-05-21T12:02:13;9.20;;;5.80;;
69754;SDS011;57023;52.218;5.158;2023-05-21T12:04:40;8.50;;;5.80;;
69754;SDS011;57023;52.218;5.158;2023-05-21T12:07:06;9.20;;;5.63;;
69754;SDS011;57023;52.218;5.158;2023-05-21T12:09:39;7.72;;;5.75;;
69754;SDS011;57023;52.218;5.158;2023-05-21T12:12:09;8.30;;;6.00;;
69754;SDS011;57023;52.218;5.158;2023-05-21T12:14:35;7.00;;;5.95;;
69754;SDS011;57023;52.218;5.158;2023-05-21T12:17:02;7.80;;;6.03;;
69754;SDS011;57023;52.218;5.158;2023-05-21T12:19:31;8.80;;;6.30;;
69754;SDS011;57023;52.218;5.158;2023-05-21T12:22:00;9.35;;;6.00;;
69754;SDS011;57023;52.218;5.158;2023-05-21T12:24:26;9.95;;;6.03;;
69754;SDS011;57023;52.218;5.158;2023-05-21T12:26:52;9.33;;;6.07;;
69754;SDS011;57023;52.218;5.158;2023-05-21T12:29:18;9.68;;;6.63;;
69754;SDS011;57023;52.218;5.158;2023-05-21T12:31:48;9.10;;;6.40;;
69754;SDS011;57023;52.218;5.158;2023-05-21T12:34:13;8.00;;;6.05;;
69754;SDS011;57023;52.218;5.158;2023-05-21T12:36:42;8.75;;;6.00;;
69754;SDS011;57023;52.218;5.158;2023-05-21T12:39:13;10.55;;;6.38;;
69754;SDS011;57023;52.218;5.158;2023-05-21T12:44:04;11.13;;;6.60;;
69754;SDS011;57023;52.218;5.158;2023-05-21T12:46:32;8.32;;;6.20;;
69754;SDS011;57023;52.218;5.158;2023-05-21T12:48:58;8.17;;;6.53;;
69754;SDS011;57023;52.218;5.158;2023-05-21T12:51:23;8.50;;;6.60;;
69754;SDS011;57023;52.218;5.158;2023-05-21T12:53:48;9.37;;;6.37;;
69754;SDS011;57023;52.218;5.158;2023-05-21T12:56:14;10.30;;;6.63;;
69754;SDS011;57023;52.218;5.158;2023-05-21T12:58:41;10.02;;;6.90;;
69754;SDS011;57023;52.218;5.158;2023-05-21T13:01:07;9.93;;;6.55;;
69754;SDS011;57023;52.218;5.158;2023-05-21T13:03:37;8.52;;;6.63;;
69754;SDS011;57023;52.218;5.158;2023-05-21T13:06:05;10.05;;;5.80;;
69754;SDS011;57023;52.218;5.158;2023-05-21T13:08:31;9.93;;;6.22;;
69754;SDS011;57023;52.218;5.158;2023-05-21T13:11:01;10.05;;;6.25;;
69754;SDS011;57023;52.218;5.158;2023-05-21T13:13:26;10.63;;;6.90;;
69754;SDS011;57023;52.218;5.158;2023-05-21T13:15:52;9.80;;;5.83;;
69754;SDS011;57023;52.218;5.158;2023-05-21T13:18:18;11.68;;;6.50;;
69754;SDS011;57023;52.218;5.158;2023-05-21T13:20:44;8.63;;;6.20;;
69754;SDS011;57023;52.218;5.158;2023-05-21T13:23:10;10.57;;;6.03;;
69754;SDS011;57023;52.218;5.158;2023-05-21T13:25:35;9.03;;;6.07;;
69754;SDS011;57023;52.218;5.158;2023-05-21T13:28:01;10.20;;;6.27;;
69754;SDS011;57023;52.218;5.158;2023-05-21T13:30:28;9.77;;;5.25;;
69754;SDS011;57023;52.218;5.158;2023-05-21T13:32:54;9.30;;;5.97;;
69754;SDS011;57023;52.218;5.158;2023-05-21T13:35:19;9.83;;;5.67;;
69754;SDS011;57023;52.218;5.158;2023-05-21T13:37:46;8.47;;;5.23;;
69754;SDS011;57023;52.218;5.158;2023-05-21T13:40:12;8.80;;;4.93;;
69754;SDS011;57023;52.218;5.158;2023-05-21T13:42:38;8.27;;;5.88;;
69754;SDS011;57023;52.218;5.158;2023-05-21T13:45:06;9.52;;;6.03;;
69754;SDS011;57023;52.218;5.158;2023-05-21T13:47:32;9.00;;;6.38;;
69754;SDS011;57023;52.218;5.158;2023-05-21T13:49:58;8.73;;;5.90;;
69754;SDS011;57023;52.218;5.158;2023-05-21T13:52:23;8.73;;;5.20;;
69754;SDS011;57023;52.218;5.158;2023-05-21T13:54:48;9.63;;;5.70;;
69754;SDS011;57023;52.218;5.158;2023-05-21T13:57:16;7.00;;;5.38;;
69754;SDS011;57023;52.218;5.158;2023-05-21T13:59:42;9.20;;;5.20;;
69754;SDS011;57023;52.218;5.158;2023-05-21T14:02:07;8.77;;;5.40;;
69754;SDS011;57023;52.218;5.158;2023-05-21T14:04:33;7.75;;;5.15;;
69754;SDS011;57023;52.218;5.158;2023-05-21T14:06:58;7.70;;;4.93;;
69754;SDS011;57023;52.218;5.158;2023-05-21T14:09:24;8.27;;;5.45;;
69754;SDS011;57023;52.218;5.158;2023-05-21T14:14:16;7.70;;;4.68;;
69754;SDS011;57023;52.218;5.158;2023-05-21T14:19:09;10.35;;;5.85;;
69754;SDS011;57023;52.218;5.158;2023-05-21T14:21:34;8.27;;;5.20;;
69754;SDS011;57023;52.218;5.158;2023-05-21T14:24:00;7.30;;;5.27;;
69754;SDS011;57023;52.218;5.158;2023-05-21T14:26:25;8.73;;;5.27;;
69754;SDS011;57023;52.218;5.158;2023-05-21T14:28:51;7.77;;;5.10;;
69754;SDS011;57023;52.218;5.158;2023-05-21T14:31:16;8.10;;;5.70;;
69754;SDS011;57023;52.218;5.158;2023-05-21T14:33:41;8.80;;;5.70;;
69754;SDS011;57023;52.218;5.158;2023-05-21T14:36:07;7.00;;;5.30;;
69754;SDS011;57023;52.218;5.158;2023-05-21T14:38:32;10.17;;;5.10;;
69754;SDS011;57023;52.218;5.158;2023-05-21T14:40:57;8.60;;;5.10;;
69754;SDS011;57023;52.218;5.158;2023-05-21T14:43:23;8.57;;;5.40;;
69754;SDS011;57023;52.218;5.158;2023-05-21T14:45:48;8.00;;;5.30;;
69754;SDS011;57023;52.218;5.158;2023-05-21T14:48:15;8.93;;;5.22;;
69754;SDS011;57023;52.218;5.158;2023-05-21T14:50:42;8.82;;;5.80;;
69754;SDS011;57023;52.218;5.158;2023-05-21T14:53:08;8.85;;;5.80;;
69754;SDS011;57023;52.218;5.158;2023-05-21T14:55:35;9.95;;;5.32;;
69754;SDS011;57023;52.218;5.158;2023-05-21T14:58:01;7.82;;;5.80;;
69754;SDS011;57023;52.218;5.158;2023-05-21T15:00:27;7.18;;;5.28;;
69754;SDS011;57023;52.218;5.158;2023-05-21T15:02:53;8.97;;;5.70;;
69754;SDS011;57023;52.218;5.158;2023-05-21T15:05:18;8.87;;;5.23;;
69754;SDS011;57023;52.218;5.158;2023-05-21T15:07:44;8.97;;;5.73;;
69754;SDS011;57023;52.218;5.158;2023-05-21T15:10:09;8.10;;;5.70;;
69754;SDS011;57023;52.218;5.158;2023-05-21T15:12:35;9.03;;;5.73;;
69754;SDS011;57023;52.218;5.158;2023-05-21T15:15:04;9.27;;;5.80;;